Time;durP1;ratioP1;P1;durP2;ratioP2;P2;SDS_P1;SDS_P2;PMS_P1;PMS_P2;Temp;Humidity;BMP_temperature;BMP_pressure;BME280_temperature;BME280_humidity;BME280_pressure;Samples;Min_cycle;Max_cycle;Signal;HPM_P1;HPM_P2
2023/12/19 00:02:02;;;;;;;1.10;1.10;;;;;;;4.93;96.54;96638.66;4321298;32;20297;-59
2023/12/19 00:04:28;;;;;;;1.10;1.10;;;;;;;4.91;95.67;96627.56;4324506;32;20300;-59
2023/12/19 00:06:54;;;;;;;0.60;0.60;;;;;;;4.96;95.72;96622.44;4333003;32;20205;-59
2023/12/19 00:09:21;;;;;;;0.77;0.77;;;;;;;5.12;94.52;96619.97;4329972;32;20326;-59
2023/12/19 00:11:47;;;;;;;4.33;2.10;;;;;;;5.19;94.95;96614.59;4324926;32;20326;-59
2023/12/19 00:14:12;;;;;;;0.60;0.60;;;;;;;5.28;94.02;96607.16;4323571;32;20289;-59
2023/12/19 00:16:38;;;;;;;0.80;0.80;;;;;;;5.27;93.15;96598.47;4324872;32;20263;-59
2023/12/19 00:19:04;;;;;;;0.73;0.73;;;;;;;5.26;93.41;96594.25;4326540;32;20255;-59
2023/12/19 00:21:29;;;;;;;0.70;0.70;;;;;;;5.02;92.90;96582.88;4330823;32;20253;-59
2023/12/19 00:23:54;;;;;;;0.40;0.40;;;;;;;5.16;92.57;96580.88;4324104;32;20245;-59
2023/12/19 00:26:21;;;;;;;0.73;0.73;;;;;;;5.20;91.44;96571.47;4330578;32;20277;-59
2023/12/19 00:28:48;;;;;;;0.60;0.60;;;;;;;5.21;90.91;96565.19;4317231;32;20272;-59
2023/12/19 00:31:23;;;;;;;0.63;0.63;;;;;;;5.29;90.29;96572.75;4319796;32;20286;-59
2023/12/19 00:33:49;;;;;;;1.33;1.03;;;;;;;5.29;89.82;96562.22;4321402;32;20321;-59
2023/12/19 00:36:19;;;;;;;0.73;0.73;;;;;;;5.31;90.01;96562.00;4324288;32;20326;-59
2023/12/19 00:38:44;;;;;;;0.27;0.27;;;;;;;5.27;89.66;96559.00;4324661;32;20193;-59
2023/12/19 00:41:09;;;;;;;0.40;0.40;;;;;;;5.35;88.55;96563.94;4330882;32;20311;-59
2023/12/19 00:43:35;;;;;;;0.47;0.40;;;;;;;5.47;88.21;96569.19;4321350;32;20233;-59
2023/12/19 00:46:01;;;;;;;0.30;0.30;;;;;;;5.65;86.70;96576.94;4325191;32;20194;-60
2023/12/19 00:48:27;;;;;;;0.30;0.30;;;;;;;5.58;87.53;96581.56;4320160;32;20220;-59
2023/12/19 00:50:52;;;;;;;0.50;0.50;;;;;;;5.49;88.20;96585.56;4329092;32;20279;-59
2023/12/19 00:53:18;;;;;;;0.40;0.40;;;;;;;5.50;88.00;96587.94;4322550;32;20237;-59
2023/12/19 00:55:43;;;;;;;0.30;0.30;;;;;;;5.43;88.50;96589.88;4327456;32;20190;-59
2023/12/19 00:58:09;;;;;;;0.23;0.23;;;;;;;5.53;88.43;96584.06;4323936;32;20228;-59
2023/12/19 01:00:34;;;;;;;0.20;0.20;;;;;;;5.62;87.55;96579.25;4327501;32;20225;-59
2023/12/19 01:03:00;;;;;;;1.07;0.47;;;;;;;5.67;87.10;96590.69;4325410;32;20305;-59
2023/12/19 01:05:25;;;;;;;0.30;0.30;;;;;;;5.69;87.23;96579.94;4320430;32;20185;-61
2023/12/19 01:07:50;;;;;;;0.70;0.57;;;;;;;5.69;87.20;96580.72;4326184;32;20189;-59
2023/12/19 01:10:16;;;;;;;0.90;0.90;;;;;;;5.65;87.19;96579.59;4319102;32;20273;-59
2023/12/19 01:12:41;;;;;;;1.10;0.50;;;;;;;5.52;87.10;96582.47;4322548;32;20249;-58
2023/12/19 01:15:07;;;;;;;0.60;0.60;;;;;;;5.59;87.62;96585.00;4320868;32;20218;-60
2023/12/19 01:17:32;;;;;;;0.50;0.50;;;;;;;5.71;86.43;96585.75;4333646;32;20207;-59
2023/12/19 01:19:58;;;;;;;0.50;0.50;;;;;;;5.57;88.06;96587.03;4324918;32;20224;-59
2023/12/19 01:22:23;;;;;;;0.30;0.30;;;;;;;5.51;87.78;96584.28;4323241;32;20207;-59
2023/12/19 01:24:49;;;;;;;0.50;0.50;;;;;;;5.69;86.60;96593.87;4329066;32;20204;-59
2023/12/19 01:27:14;;;;;;;0.60;0.60;;;;;;;5.63;86.28;96591.38;4324011;32;20194;-59
2023/12/19 01:29:41;;;;;;;0.23;0.23;;;;;;;5.76;86.65;96586.69;4323019;32;20223;-59
2023/12/19 01:32:06;;;;;;;0.80;0.80;;;;;;;5.71;86.29;96585.75;4330845;32;20234;-59
2023/12/19 01:34:31;;;;;;;0.70;0.70;;;;;;;5.77;86.52;96593.56;4330983;32;20433;-59
2023/12/19 01:36:57;;;;;;;0.77;0.77;;;;;;;5.66;86.79;96589.09;4327604;32;20190;-58
2023/12/19 01:39:22;;;;;;;0.37;0.37;;;;;;;5.74;86.42;96586.09;4333580;32;20213;-59
2023/12/19 01:41:48;;;;;;;0.97;0.77;;;;;;;5.64;86.18;96585.06;4318621;32;20216;-59
2023/12/19 01:44:17;;;;;;;0.47;0.47;;;;;;;5.60;86.12;96599.75;4330896;32;20225;-59
2023/12/19 01:46:42;;;;;;;0.53;0.53;;;;;;;5.59;86.12;96592.88;4325264;32;20213;-59
2023/12/19 01:49:08;;;;;;;0.70;0.60;;;;;;;5.57;86.25;96589.69;4328994;32;20361;-59
2023/12/19 01:51:33;;;;;;;0.73;0.63;;;;;;;5.80;85.73;96590.47;4334402;32;20205;-59
2023/12/19 01:53:59;;;;;;;0.60;0.60;;;;;;;5.57;86.62;96587.03;4324512;32;20209;-59
2023/12/19 01:56:24;;;;;;;1.03;1.03;;;;;;;5.46;87.35;96586.00;4322829;32;20209;-59
2023/12/19 01:58:50;;;;;;;0.63;0.63;;;;;;;5.51;87.05;96581.66;4332332;32;20252;-59
2023/12/19 02:01:16;;;;;;;0.13;0.13;;;;;;;5.44;88.06;96575.72;4329931;32;20303;-59
2023/12/19 02:03:43;;;;;;;5.73;1.17;;;;;;;5.48;87.97;96587.37;4325474;32;20277;-59
2023/12/19 02:06:09;;;;;;;0.70;0.70;;;;;;;5.37;87.89;96590.03;4321034;32;20290;-59
2023/12/19 02:08:34;;;;;;;0.63;0.63;;;;;;;5.27;89.12;96581.88;4328222;32;20316;-59
2023/12/19 02:11:00;;;;;;;0.47;0.47;;;;;;;5.40;88.82;96576.41;4334242;32;20286;-59
2023/12/19 02:13:25;;;;;;;0.77;0.70;;;;;;;5.33;88.41;96571.25;4333906;32;20251;-61
2023/12/19 02:15:51;;;;;;;0.73;0.73;;;;;;;5.31;88.61;96560.16;4336881;32;20204;-59
2023/12/19 02:18:21;;;;;;;0.60;0.60;;;;;;;5.35;87.83;96556.06;4323341;32;20240;-59
2023/12/19 02:20:47;;;;;;;0.53;0.53;;;;;;;5.16;88.99;96546.66;4331678;32;20303;-59
2023/12/19 02:23:13;;;;;;;0.80;0.80;;;;;;;5.32;88.83;96532.03;4329519;32;20310;-59
2023/12/19 02:25:39;;;;;;;0.47;0.47;;;;;;;5.23;89.34;96531.56;4331377;32;20249;-59
2023/12/19 02:28:05;;;;;;;1.00;0.67;;;;;;;5.10;90.06;96537.06;4333390;32;20333;-60
2023/12/19 02:30:31;;;;;;;1.23;0.93;;;;;;;5.11;89.95;96536.84;4331558;32;20206;-61
2023/12/19 02:32:58;;;;;;;0.37;0.37;;;;;;;5.11;89.82;96542.09;4330637;32;20289;-60
2023/12/19 02:35:24;;;;;;;3.30;1.03;;;;;;;5.18;89.68;96540.16;4334848;32;20201;-60
2023/12/19 02:37:49;;;;;;;0.50;0.50;;;;;;;5.27;88.66;96527.44;4322708;32;20328;-60
2023/12/19 02:40:15;;;;;;;0.87;0.87;;;;;;;5.21;88.51;96517.84;4329349;32;21713;-60
2023/12/19 02:42:41;;;;;;;0.50;0.50;;;;;;;5.24;88.63;96520.00;4332442;32;20209;-60
2023/12/19 02:45:07;;;;;;;0.50;0.50;;;;;;;5.07;88.82;96509.38;4328080;32;20193;-59
2023/12/19 02:47:33;;;;;;;0.50;0.50;;;;;;;4.97;88.79;96518.87;4329694;32;20333;-60
2023/12/19 02:49:59;;;;;;;0.27;0.27;;;;;;;5.16;88.52;96518.53;4320911;32;20294;-60
2023/12/19 02:52:24;;;;;;;0.50;0.50;;;;;;;4.99;89.51;96524.72;4325133;33;20360;-60
2023/12/19 02:54:49;;;;;;;0.97;0.97;;;;;;;4.93;88.73;96525.63;4328201;32;20215;-60
2023/12/19 02:57:15;;;;;;;0.53;0.53;;;;;;;4.86;89.38;96520.47;4331046;32;20288;-60
2023/12/19 02:59:40;;;;;;;0.73;0.73;;;;;;;5.04;89.21;96524.81;4330363;32;20201;-60
2023/12/19 03:02:06;;;;;;;0.50;0.50;;;;;;;5.00;89.07;96528.91;4327201;33;20220;-60
2023/12/19 03:04:31;;;;;;;0.60;0.60;;;;;;;5.05;88.91;96529.03;4320811;32;20260;-59
2023/12/19 03:06:56;;;;;;;0.63;0.63;;;;;;;5.02;89.39;96532.94;4324532;32;20227;-60
2023/12/19 03:09:22;;;;;;;0.30;0.30;;;;;;;4.94;89.55;96525.41;4337891;32;20201;-60
2023/12/19 03:12:17;;;;;;;0.40;0.40;;;;;;;4.85;89.75;96529.38;4325336;32;20205;-59
2023/12/19 03:14:43;;;;;;;0.27;0.27;;;;;;;4.75;90.53;96532.56;4319899;32;20201;-60
2023/12/19 03:17:08;;;;;;;0.20;0.20;;;;;;;4.70;90.02;96529.81;4319485;32;20357;-60
2023/12/19 03:19:34;;;;;;;0.37;0.37;;;;;;;4.92;89.90;96534.53;4328309;32;20189;-60
2023/12/19 03:21:59;;;;;;;0.80;0.80;;;;;;;4.81;89.45;96536.91;4336098;32;20255;-60
2023/12/19 03:24:24;;;;;;;0.50;0.50;;;;;;;4.73;89.99;96534.63;4329798;33;20267;-59
2023/12/19 03:26:50;;;;;;;0.50;0.33;;;;;;;4.84;88.69;96527.78;4326473;32;20285;-60
2023/12/19 03:29:15;;;;;;;0.47;0.47;;;;;;;4.46;90.59;96536.84;4333723;32;20291;-60
2023/12/19 03:31:42;;;;;;;0.67;0.67;;;;;;;4.59;90.80;96524.53;4329917;32;20210;-60
2023/12/19 03:34:08;;;;;;;0.70;0.70;;;;;;;4.71;89.84;96535.88;4322017;32;20246;-60
2023/12/19 03:36:33;;;;;;;0.73;0.73;;;;;;;4.64;89.45;96517.56;4327239;32;20355;-60
2023/12/19 03:38:58;;;;;;;0.57;0.57;;;;;;;4.53;90.24;96507.84;4326163;32;20194;-60
2023/12/19 03:41:24;;;;;;;0.20;0.20;;;;;;;4.70;90.43;96492.22;4329527;33;20244;-60
2023/12/19 03:43:49;;;;;;;1.90;0.80;;;;;;;4.54;90.88;96491.06;4323123;32;20193;-60
2023/12/19 03:46:14;;;;;;;0.63;0.63;;;;;;;4.51;91.31;96488.88;4325487;32;20178;-60
2023/12/19 03:48:44;;;;;;;0.30;0.30;;;;;;;4.61;90.83;96488.31;4320748;32;20217;-60
2023/12/19 03:51:10;;;;;;;0.57;0.53;;;;;;;4.77;90.13;96480.59;4329757;32;20193;-60
2023/12/19 03:53:35;;;;;;;0.30;0.30;;;;;;;4.33;91.00;96483.72;4330210;32;20325;-60
2023/12/19 03:56:00;;;;;;;0.73;0.73;;;;;;;4.39;91.56;96477.53;4320140;32;20206;-60
2023/12/19 03:58:26;;;;;;;0.30;0.30;;;;;;;4.50;91.13;96474.16;4331258;32;20269;-60
2023/12/19 04:00:51;;;;;;;0.37;0.37;;;;;;;4.51;90.50;96475.75;4327229;32;20274;-60
2023/12/19 04:03:16;;;;;;;1.20;0.73;;;;;;;4.30;91.16;96466.56;4329150;32;20240;-60
2023/12/19 04:05:42;;;;;;;0.73;0.73;;;;;;;4.28;91.67;96459.94;4322176;32;20349;-60
2023/12/19 04:08:07;;;;;;;0.63;0.63;;;;;;;4.34;91.50;96466.94;4327768;32;20197;-60
2023/12/19 04:10:32;;;;;;;0.40;0.40;;;;;;;4.28;91.37;96470.44;4326903;32;20249;-60
2023/12/19 04:12:58;;;;;;;0.83;0.63;;;;;;;4.27;91.50;96468.84;4329501;32;20220;-60
2023/12/19 04:15:24;;;;;;;0.50;0.50;;;;;;;4.40;90.52;96468.62;4338072;32;20197;-60
2023/12/19 04:17:49;;;;;;;0.53;0.53;;;;;;;4.43;90.42;96473.44;4325113;32;20186;-60
2023/12/19 04:20:15;;;;;;;0.57;0.57;;;;;;;4.43;89.97;96473.44;4316158;33;20249;-60
2023/12/19 04:22:42;;;;;;;0.47;0.47;;;;;;;4.36;90.94;96464.87;4327760;32;20225;-60
2023/12/19 04:25:07;;;;;;;0.40;0.40;;;;;;;4.41;90.71;96467.59;4325033;32;20265;-60
2023/12/19 04:27:33;;;;;;;0.30;0.30;;;;;;;4.45;90.13;96472.19;4323176;32;20294;-60
2023/12/19 04:29:59;;;;;;;0.67;0.67;;;;;;;4.53;89.76;96457.94;4328503;32;20243;-60
2023/12/19 04:32:25;;;;;;;0.30;0.30;;;;;;;4.19;90.65;96458.66;4330374;32;20213;-60
2023/12/19 04:34:50;;;;;;;0.60;0.60;;;;;;;4.14;90.56;96464.59;4323618;32;20317;-59
2023/12/19 04:37:15;;;;;;;0.50;0.50;;;;;;;4.32;90.54;96468.97;4322751;32;20281;-60
2023/12/19 04:39:41;;;;;;;0.73;0.73;;;;;;;4.19;90.42;96477.03;4328081;32;20199;-60
2023/12/19 04:42:07;;;;;;;0.27;0.27;;;;;;;4.18;90.34;96468.34;4321289;32;20185;-60
2023/12/19 04:44:35;;;;;;;0.90;0.90;;;;;;;4.44;89.74;96462.72;4316073;32;20256;-60
2023/12/19 04:47:00;;;;;;;0.63;0.63;;;;;;;4.29;90.43;96461.53;4330467;32;20305;-60
2023/12/19 04:49:25;;;;;;;0.30;0.30;;;;;;;4.12;90.72;96464.81;4320281;32;20291;-62
2023/12/19 04:51:54;;;;;;;0.20;0.20;;;;;;;4.18;91.33;96468.34;4328759;32;20197;-60
2023/12/19 04:54:19;;;;;;;0.30;0.20;;;;;;;4.17;90.97;96463.31;4333111;32;20253;-60
2023/12/19 04:56:45;;;;;;;0.53;0.53;;;;;;;4.26;89.81;96475.13;4319955;32;22766;-60
2023/12/19 04:59:10;;;;;;;0.30;0.30;;;;;;;4.31;89.74;96472.63;4318974;32;20179;-60
2023/12/19 05:01:40;;;;;;;0.37;0.37;;;;;;;4.32;89.98;96459.25;4326672;32;20228;-60
2023/12/19 05:04:06;;;;;;;0.10;0.10;;;;;;;4.45;89.43;96447.75;4317514;32;20189;-60
2023/12/19 05:06:33;;;;;;;0.30;0.30;;;;;;;4.39;88.63;96441.56;4326666;32;20290;-60
2023/12/19 05:08:59;;;;;;;0.23;0.23;;;;;;;4.48;88.29;96444.66;4329324;32;20286;-60
2023/12/19 05:11:24;;;;;;;0.67;0.67;;;;;;;4.19;89.33;96437.62;4334085;32;20357;-60
2023/12/19 05:13:49;;;;;;;0.27;0.27;;;;;;;4.33;88.65;96439.84;4331061;32;20225;-60
2023/12/19 05:16:16;;;;;;;2.00;0.40;;;;;;;4.59;87.69;96440.44;4313897;32;20256;-60
2023/12/19 05:18:43;;;;;;;0.60;0.53;;;;;;;4.60;86.36;96437.59;4320275;32;20220;-60
2023/12/19 05:21:09;;;;;;;0.20;0.20;;;;;;;4.70;86.13;96437.03;4324052;32;20283;-60
2023/12/19 05:23:36;;;;;;;0.73;0.47;;;;;;;4.60;87.12;96448.09;4318089;32;20325;-60
2023/12/19 05:26:06;;;;;;;0.20;0.20;;;;;;;4.62;87.19;96440.00;4324521;32;20290;-60
2023/12/19 05:28:32;;;;;;;0.10;0.10;;;;;;;4.54;86.99;96428.00;4315612;32;20293;-60
2023/12/19 05:30:57;;;;;;;0.47;0.47;;;;;;;4.68;86.55;96439.88;4317271;32;20274;-60
2023/12/19 05:33:27;;;;;;;0.20;0.20;;;;;;;4.83;86.35;96432.34;4325732;32;20292;-60
2023/12/19 05:35:53;;;;;;;0.20;0.20;;;;;;;4.75;86.48;96429.28;4325744;32;20205;-60
2023/12/19 05:38:19;;;;;;;0.30;0.30;;;;;;;4.70;86.76;96424.69;4319410;32;20297;-60
2023/12/19 05:40:44;;;;;;;2.47;0.27;;;;;;;4.59;87.41;96428.09;4323570;32;20189;-60
2023/12/19 05:43:10;;;;;;;0.30;0.30;;;;;;;4.73;86.37;96421.63;4327677;32;20198;-60
2023/12/19 05:45:35;;;;;;;0.20;0.20;;;;;;;4.70;86.52;96416.81;4327422;32;20221;-60
2023/12/19 05:48:01;;;;;;;0.10;0.10;;;;;;;4.63;86.91;96416.13;4325971;32;20255;-60
2023/12/19 05:50:26;;;;;;;0.30;0.30;;;;;;;4.68;86.92;96413.59;4324657;32;20189;-60
2023/12/19 05:52:52;;;;;;;0.50;0.50;;;;;;;4.75;86.61;96419.56;4324494;32;20285;-60
2023/12/19 05:55:19;;;;;;;0.30;0.30;;;;;;;4.63;86.34;96408.22;4324461;32;20212;-60
2023/12/19 05:57:44;;;;;;;0.27;0.27;;;;;;;4.59;85.81;96414.97;4325285;32;20201;-59
2023/12/19 06:00:11;;;;;;;0.13;0.13;;;;;;;4.56;86.04;96417.28;4324659;32;20316;-59
2023/12/19 06:02:36;;;;;;;0.13;0.13;;;;;;;4.56;86.04;96420.69;4329716;32;20241;-60
2023/12/19 06:05:07;;;;;;;0.50;0.50;;;;;;;4.56;86.45;96430.41;4325553;32;20278;-59
2023/12/19 06:07:33;;;;;;;0.30;0.30;;;;;;;4.37;87.15;96427.84;4319982;32;20190;-59
2023/12/19 06:09:58;;;;;;;0.43;0.43;;;;;;;4.43;87.42;96424.31;4325784;32;20317;-60
2023/12/19 06:12:24;;;;;;;0.30;0.30;;;;;;;4.28;87.65;96421.34;4322047;32;20370;-60
2023/12/19 06:14:49;;;;;;;0.30;0.30;;;;;;;4.32;87.46;96414.62;4312276;32;20236;-59
2023/12/19 06:17:14;;;;;;;0.23;0.23;;;;;;;4.54;86.73;96411.44;4320511;32;20182;-60
2023/12/19 06:19:41;;;;;;;0.27;0.27;;;;;;;4.25;87.29;96415.75;4328460;32;20247;-59
2023/12/19 06:22:06;;;;;;;0.27;0.13;;;;;;;4.45;86.87;96416.22;4328121;32;20185;-60
2023/12/19 06:24:31;;;;;;;0.63;0.63;;;;;;;4.53;85.49;96413.28;4328755;32;20357;-60
2023/12/19 06:26:57;;;;;;;0.40;0.40;;;;;;;4.64;85.42;96422.16;4326291;32;20185;-60
2023/12/19 06:29:22;;;;;;;0.53;0.53;;;;;;;4.73;84.83;96418.19;4328874;32;20220;-60
2023/12/19 06:31:47;;;;;;;0.87;0.57;;;;;;;4.26;86.49;96425.22;4332636;32;20202;-60
2023/12/19 06:34:13;;;;;;;0.57;0.57;;;;;;;4.33;87.27;96424.09;4324623;32;20265;-60
2023/12/19 06:36:40;;;;;;;0.53;0.53;;;;;;;4.39;87.39;96415.28;4322012;32;20197;-60
2023/12/19 06:39:06;;;;;;;0.10;0.10;;;;;;;4.34;87.11;96417.03;4320969;32;20197;-60
2023/12/19 06:41:31;;;;;;;4.80;0.67;;;;;;;4.45;86.71;96410.97;4327841;32;20293;-60
2023/12/19 06:43:57;;;;;;;1.70;0.60;;;;;;;4.47;86.51;96414.16;4328664;32;20279;-62
2023/12/19 06:46:22;;;;;;;1.27;0.80;;;;;;;4.40;86.78;96416.09;4323187;32;20209;-60
2023/12/19 06:48:47;;;;;;;0.30;0.20;;;;;;;4.26;87.45;96426.03;4323737;32;20235;-60
2023/12/19 06:51:26;;;;;;;0.20;0.20;;;;;;;4.18;88.33;96409.78;4326758;32;20217;-59
2023/12/19 06:53:54;;;;;;;0.20;0.20;;;;;;;4.23;87.75;96405.47;4321142;33;20268;-60
2023/12/19 06:56:19;;;;;;;0.17;0.17;;;;;;;4.19;87.58;96404.31;4317819;32;20374;-60
2023/12/19 06:58:45;;;;;;;0.10;0.10;;;;;;;4.23;87.76;96394.94;4320866;32;20286;-60
2023/12/19 07:01:10;;;;;;;0.53;0.40;;;;;;;4.10;88.33;96393.34;4322014;32;20274;-60
2023/12/19 07:03:36;;;;;;;0.80;0.80;;;;;;;3.99;89.25;96388.84;4321964;32;20266;-60
2023/12/19 07:06:02;;;;;;;3.60;1.40;;;;;;;3.96;89.33;96375.38;4328887;32;20216;-65
2023/12/19 07:08:31;;;;;;;0.70;0.70;;;;;;;7.33;100.00;96361.78;4327560;32;20186;-64
2023/12/19 07:10:57;;;;;;;0.80;0.67;;;;;;;9.89;100.00;96361.38;4322434;32;20349;-64
2023/12/19 07:13:23;;;;;;;1.90;1.03;;;;;;;10.21;100.00;96369.91;4331802;32;20297;-65
2023/12/19 07:15:48;;;;;;;0.50;0.40;;;;;;;11.66;91.18;96366.41;4328243;32;20198;-64
2023/12/19 07:18:13;;;;;;;0.60;0.60;;;;;;;11.82;76.38;96371.69;4336121;32;20211;-65
2023/12/19 07:20:39;;;;;;;0.50;0.50;;;;;;;12.34;72.91;96365.72;4314114;32;20206;-64
2023/12/19 07:23:04;;;;;;;0.53;0.53;;;;;;;12.51;59.44;96383.94;4324528;32;20194;-65
2023/12/19 07:25:31;;;;;;;1.30;0.50;;;;;;;12.58;56.94;96381.78;4325800;32;20265;-65
2023/12/19 07:27:56;;;;;;;0.30;0.30;;;;;;;13.24;73.84;96367.84;4329502;32;20219;-64
2023/12/19 07:30:22;;;;;;;0.30;0.30;;;;;;;13.54;69.56;96358.66;4330685;32;20189;-61
2023/12/19 07:32:50;;;;;;;0.50;0.50;;;;;;;11.30;51.73;96354.34;4331193;32;20243;-61
2023/12/19 07:35:19;;;;;;;0.37;0.37;;;;;;;9.65;54.56;96361.06;4329654;32;20253;-60
2023/12/19 07:37:45;;;;;;;0.60;0.60;;;;;;;8.34;58.47;96380.47;4331694;32;20205;-60
2023/12/19 07:40:11;;;;;;;1.03;0.87;;;;;;;7.28;61.29;96374.09;4327697;32;20273;-60
2023/12/19 07:42:36;;;;;;;0.93;0.43;;;;;;;6.69;64.49;96358.06;4327167;32;20205;-60
2023/12/19 07:45:03;;;;;;;0.40;0.40;;;;;;;5.80;67.66;96363.25;4330600;32;20212;-61
2023/12/19 07:47:28;;;;;;;0.70;0.70;;;;;;;5.35;69.91;96356.09;4331308;32;20204;-61
2023/12/19 07:49:54;;;;;;;0.50;0.50;;;;;;;5.16;71.50;96362.56;4328162;32;20297;-60
2023/12/19 07:52:19;;;;;;;0.40;0.40;;;;;;;5.14;71.70;96357.53;4330774;32;20191;-60
2023/12/19 07:54:44;;;;;;;0.40;0.40;;;;;;;5.17;71.22;96341.31;4330589;32;20181;-60
2023/12/19 07:57:10;;;;;;;0.30;0.30;;;;;;;5.03;71.97;96328.63;4328119;32;20190;-61
2023/12/19 07:59:35;;;;;;;0.43;0.43;;;;;;;5.16;71.88;96325.75;4332563;32;20220;-60
2023/12/19 08:02:01;;;;;;;0.40;0.40;;;;;;;5.20;71.09;96326.84;4322702;32;20207;-61
2023/12/19 08:04:26;;;;;;;0.30;0.30;;;;;;;4.96;72.29;96326.16;4327165;32;20204;-60
2023/12/19 08:06:53;;;;;;;0.40;0.33;;;;;;;4.93;72.39;96323.19;4330394;32;20209;-60
2023/12/19 08:09:18;;;;;;;3.30;0.60;;;;;;;4.97;72.46;96322.50;4334142;32;20194;-60
2023/12/19 08:11:44;;;;;;;0.40;0.40;;;;;;;5.08;72.64;96329.53;4326621;32;20297;-60
2023/12/19 08:14:09;;;;;;;0.53;0.53;;;;;;;5.25;72.47;96328.78;4327545;32;20201;-60
2023/12/19 08:16:36;;;;;;;2.13;1.07;;;;;;;5.17;72.53;96327.34;4326655;32;20210;-60
2023/12/19 08:19:02;;;;;;;1.07;0.97;;;;;;;5.26;72.58;96333.03;4320395;32;20324;-60
2023/12/19 08:21:28;;;;;;;0.43;0.43;;;;;;;5.12;73.44;96322.78;4322595;32;20365;-61
2023/12/19 08:24:07;;;;;;;1.67;0.63;;;;;;;5.24;72.65;96327.19;4326469;32;20323;-60
2023/12/19 08:26:39;;;;;;;0.40;0.40;;;;;;;5.20;72.65;96326.09;4324726;32;20236;-60
2023/12/19 08:29:04;;;;;;;0.33;0.33;;;;;;;5.33;73.20;96321.34;4321439;32;20302;-60
2023/12/19 08:31:46;;;;;;;0.47;0.47;;;;;;;5.28;72.38;96329.13;4328328;32;20333;-60
2023/12/19 08:34:16;;;;;;;0.30;0.30;;;;;;;5.39;73.31;96328.31;4324059;32;20198;-60
2023/12/19 08:36:43;;;;;;;0.77;0.50;;;;;;;5.34;74.29;96322.94;4327618;32;20364;-60
2023/12/19 08:39:10;;;;;;;1.07;0.80;;;;;;;5.37;73.02;96321.69;4324954;32;20304;-60
2023/12/19 08:41:37;;;;;;;0.27;0.27;;;;;;;5.40;73.10;96318.56;4333961;32;20290;-60
2023/12/19 08:44:08;;;;;;;0.30;0.30;;;;;;;5.52;73.66;96322.75;4330921;32;20286;-60
2023/12/19 08:46:33;;;;;;;0.30;0.30;;;;;;;5.58;73.39;96313.09;4323421;32;20389;-61
2023/12/19 08:48:59;;;;;;;0.60;0.60;;;;;;;5.61;74.48;96312.59;4327969;32;20308;-60
2023/12/19 08:51:25;;;;;;;0.83;0.50;;;;;;;5.58;73.78;96307.84;4321069;32;20194;-60
2023/12/19 08:53:51;;;;;;;3.30;0.43;;;;;;;5.53;74.78;96313.00;4328977;33;20214;-61
2023/12/19 08:56:17;;;;;;;0.83;0.83;;;;;;;5.66;74.72;96304.00;4330843;32;20308;-61
2023/12/19 08:58:44;;;;;;;0.53;0.53;;;;;;;5.75;73.86;96313.13;4327953;32;20194;-60
2023/12/19 09:01:10;;;;;;;0.30;0.30;;;;;;;5.82;73.85;96306.66;4321385;32;20261;-60
2023/12/19 09:03:36;;;;;;;0.33;0.33;;;;;;;5.81;74.74;96299.81;4328216;32;20305;-60
2023/12/19 09:06:02;;;;;;;0.20;0.20;;;;;;;5.83;73.67;96296.91;4328887;32;20193;-61
2023/12/19 09:08:27;;;;;;;1.13;0.47;;;;;;;5.99;71.61;96298.00;4319712;32;20358;-60
2023/12/19 09:10:53;;;;;;;0.40;0.40;;;;;;;6.10;71.62;96303.19;4329533;32;20220;-60
2023/12/19 09:13:21;;;;;;;0.57;0.57;;;;;;;6.20;70.36;96303.34;4328347;32;20185;-60
2023/12/19 09:15:47;;;;;;;0.20;0.20;;;;;;;6.25;70.70;96299.16;4327469;32;20305;-60
2023/12/19 09:18:12;;;;;;;1.07;0.80;;;;;;;6.23;70.90;96299.44;4322231;32;20277;-60
2023/12/19 09:20:38;;;;;;;0.50;0.50;;;;;;;6.29;70.52;96297.66;4320877;32;20201;-60
2023/12/19 09:23:04;;;;;;;0.20;0.20;;;;;;;6.37;69.48;96298.06;4307530;32;20244;-60
2023/12/19 09:25:29;;;;;;;0.40;0.40;;;;;;;6.39;69.32;96295.97;4316102;32;20223;-60
2023/12/19 09:27:55;;;;;;;0.10;0.10;;;;;;;6.41;70.60;96307.06;4328955;32;20193;-60
2023/12/19 09:30:21;;;;;;;0.57;0.57;;;;;;;6.51;69.06;96309.03;4312966;32;20186;-60
2023/12/19 09:32:47;;;;;;;2.17;0.40;;;;;;;6.59;68.77;96297.28;4325309;33;20421;-60
2023/12/19 09:35:24;;;;;;;0.27;0.27;;;;;;;6.62;69.86;96294.97;4324505;32;20297;-60
2023/12/19 09:38:17;;;;;;;10.80;0.53;;;;;;;6.74;67.03;96295.66;4322342;32;20201;-60
2023/12/19 09:41:08;;;;;;;3.10;0.50;;;;;;;6.69;67.26;96292.13;4331090;32;20325;-60
2023/12/19 09:44:00;;;;;;;0.50;0.50;;;;;;;6.73;68.07;96288.78;4324956;32;20363;-60
2023/12/19 09:46:25;;;;;;;0.53;0.33;;;;;;;6.80;67.51;96283.34;4322758;33;20359;-60
2023/12/19 09:49:15;;;;;;;0.60;0.60;;;;;;;6.81;67.61;96275.19;4321999;33;20310;-60
2023/12/19 09:52:03;;;;;;;0.40;0.40;;;;;;;6.84;69.00;96273.91;4323844;32;20201;-60
2023/12/19 09:54:50;;;;;;;0.33;0.33;;;;;;;6.82;69.96;96270.69;4328047;32;20294;-61
2023/12/19 09:57:50;;;;;;;0.63;0.63;;;;;;;6.88;69.22;96275.78;4329643;32;20316;-60
2023/12/19 10:03:40;;;;;;;0.93;0.73;;;;;;;6.93;69.50;96261.84;4330951;32;20319;-60
2023/12/19 10:06:17;;;;;;;0.50;0.50;;;;;;;7.00;68.12;96262.47;4331909;33;20289;-60
2023/12/19 10:09:15;;;;;;;1.80;0.83;;;;;;;7.04;68.36;96255.66;4317437;33;20369;-60
2023/12/19 10:12:18;;;;;;;0.70;0.30;;;;;;;7.09;68.61;96258.34;4337158;32;20281;-63
2023/12/19 10:15:30;;;;;;;0.87;0.87;;;;;;;7.12;67.53;96249.94;4327163;32;20384;-60
2023/12/19 10:18:30;;;;;;;1.47;1.10;;;;;;;7.24;67.63;96249.81;4317686;33;20345;-61
2023/12/19 10:21:31;;;;;;;4.20;0.53;;;;;;;7.24;68.13;96231.31;4335960;32;20294;-60
2023/12/19 10:24:29;;;;;;;0.43;0.43;;;;;;;7.24;68.39;96229.47;4316487;32;20266;-60
2023/12/19 10:27:27;;;;;;;0.40;0.40;;;;;;;7.21;69.21;96226.53;4317204;32;20351;-60
2023/12/19 10:30:37;;;;;;;0.60;0.60;;;;;;;7.31;68.21;96216.06;4320795;32;20304;-60
2023/12/19 10:33:28;;;;;;;0.30;0.30;;;;;;;7.32;69.33;96212.37;4317906;33;20293;-60
2023/12/19 10:36:29;;;;;;;0.70;0.70;;;;;;;7.12;71.80;96206.91;4341208;32;20282;-60
2023/12/19 10:39:23;;;;;;;1.43;0.50;;;;;;;7.33;66.17;96198.16;4316735;33;20369;-60
2023/12/19 10:42:13;;;;;;;0.23;0.23;;;;;;;7.59;63.72;96188.59;4329815;32;20297;-61
2023/12/19 10:45:08;;;;;;;0.40;0.40;;;;;;;7.70;64.03;96197.37;4337922;32;20344;-60
2023/12/19 10:47:49;;;;;;;0.20;0.20;;;;;;;7.84;61.15;96183.50;4324862;32;20334;-60
2023/12/19 10:50:28;;;;;;;0.33;0.33;;;;;;;8.00;60.49;96180.94;4333313;32;20289;-60
2023/12/19 10:53:00;;;;;;;0.10;0.10;;;;;;;8.06;59.16;96174.66;4304280;33;20344;-60
2023/12/19 10:55:33;;;;;;;0.10;0.10;;;;;;;8.30;57.43;96169.75;4329939;32;20301;-60
2023/12/19 10:57:58;;;;;;;0.20;0.20;;;;;;;8.39;56.78;96162.94;4334058;32;20347;-60
2023/12/19 11:00:25;;;;;;;0.20;0.20;;;;;;;8.53;55.12;96161.41;4319306;33;20190;-60
2023/12/19 11:02:53;;;;;;;0.60;0.50;;;;;;;8.67;54.27;96149.31;4333620;32;20204;-60
2023/12/19 11:05:33;;;;;;;0.20;0.20;;;;;;;8.74;56.03;96149.84;4331317;32;20293;-60
2023/12/19 11:08:04;;;;;;;0.60;0.40;;;;;;;8.86;53.55;96129.25;4335041;32;20309;-61
2023/12/19 11:10:35;;;;;;;0.20;0.20;;;;;;;9.08;50.96;96112.34;4318705;33;20342;-61
2023/12/19 11:13:05;;;;;;;0.57;0.10;;;;;;;9.04;50.42;96116.56;4314297;32;20244;-60
2023/12/19 11:15:32;;;;;;;0.10;0.10;;;;;;;9.13;50.47;96112.34;4331856;32;20216;-61
2023/12/19 11:18:04;;;;;;;0.00;0.00;;;;;;;9.24;47.94;96116.56;4329901;32;20286;-60
2023/12/19 11:20:39;;;;;;;0.50;0.50;;;;;;;9.30;47.61;96100.44;4318987;32;20292;-60
2023/12/19 11:23:43;;;;;;;0.20;0.20;;;;;;;9.28;47.84;96102.53;4321846;33;20197;-61
2023/12/19 11:26:24;;;;;;;0.10;0.10;;;;;;;9.30;48.82;96087.19;4314838;33;20297;-60
2023/12/19 11:28:50;;;;;;;0.20;0.20;;;;;;;9.44;46.38;96079.50;4332564;32;20240;-60
2023/12/19 11:31:29;;;;;;;0.10;0.10;;;;;;;9.50;46.33;96077.63;4330920;32;20300;-61
2023/12/19 11:33:55;;;;;;;0.60;0.30;;;;;;;9.58;45.99;96080.53;4334383;32;20186;-60
2023/12/19 11:36:20;;;;;;;0.23;0.23;;;;;;;9.62;45.42;96070.97;4340646;32;20190;-60
2023/12/19 11:38:47;;;;;;;0.20;0.10;;;;;;;9.65;45.39;96065.16;4313474;32;20291;-60
2023/12/19 11:41:37;;;;;;;1.07;0.40;;;;;;;9.78;45.43;96058.47;4333640;32;20189;-61
2023/12/19 11:44:02;;;;;;;0.30;0.30;;;;;;;9.96;44.46;96046.53;4336854;32;20236;-60
2023/12/19 11:46:28;;;;;;;0.20;0.20;;;;;;;9.99;44.75;96052.06;4330968;32;20335;-61
2023/12/19 11:48:55;;;;;;;1.33;0.30;;;;;;;9.98;45.13;96036.41;4324600;32;20222;-60
2023/12/19 11:51:44;;;;;;;0.20;0.20;;;;;;;10.05;44.60;96033.47;4342225;32;20233;-60
2023/12/19 11:54:18;;;;;;;0.30;0.30;;;;;;;10.03;44.95;96049.66;4318206;32;20213;-61